Flight Track Log - Related Links

Times and Time Zones

All times are in EDT time to prevent confusion due to time zone crossing. See the N796PG flight status page for this flight to view local times or setup timezone preferences in your user account.

Time Position Orientation Groundspeed Altitude Reporting Facility
EDT Latitude Longitude Course Direction KTS MPH feet Rate Location/Type
Thu 03:06:31 PM 27.4961 -80.3592 130° Southeast 165 190 600  Level Miami Center
Thu 03:07:31 PM 27.4928 -80.3217 96° East 134 154 1,500 955 Climbing Miami Center
Thu 03:08:43 PM 27.4917 -80.2772 92° East 122 140 2,700 955 Climbing Miami Center
Thu 03:09:43 PM 27.4908 -80.2350 91° East 127 146 3,600 650 Climbing Miami Center
Thu 03:10:00 PM 27.4637 -80.1293 130° Southeast  Level FlightAware Approximate
Thu 03:10:43 PM 27.4917 -80.1931 89° East 127 146 4,000  Level Miami Center
Thu 03:11:00 PM 27.4362 -80.0927 130° Southeast  Level FlightAware Approximate
Thu 03:11:43 PM 27.4906 -80.1461 92° East 149 171 4,000  Level Miami Center
Thu 03:12:43 PM 27.4939 -80.0947 86° East 161 185 4,900 942 Climbing Miami Center
Thu 03:13:44 PM 27.4950 -80.0478 88° East 145 167 5,900 900 Climbing Miami Center
Thu 03:14:43 PM 27.4897 -80.0033 98° East 140 161 6,700 555 Climbing Miami Center
Thu 03:15:43 PM 27.4653 -79.9697 129° Southeast 134 154 7,000 150 Climbing Miami Center
Thu 03:16:43 PM 27.4369 -79.9317 130° Southeast 161 185 7,000  Level Miami Center
Thu 03:17:43 PM 27.4064 -79.8886 129° Southeast 173 199 7,000  Level Miami Center
Thu 03:18:43 PM 27.3742 -79.8411 127° Southeast 173 199 7,000  Level Miami Center
Thu 03:19:43 PM 27.3417 -79.7981 130° Southeast 178 205 7,000  Level Miami Center
Thu 03:20:44 PM 27.3111 -79.7531 127° Southeast 178 205 7,000  Level Miami Center
Thu 03:21:43 PM 27.2828 -79.7125 128° Southeast 183 211 7,000  Level Miami Center
Thu 03:22:43 PM 27.2583 -79.6769 128° Southeast 188 216 7,000 446 Level Miami Center
Thu 03:23:44 PM 27.2197 -79.6244 130° Southeast 182 209 7,900 727 Climbing Miami Center
Thu 03:24:55 PM 27.1933 -79.5842 126° Southeast 154 177 8,600 504 Climbing Miami Center
Thu 03:25:55 PM 27.1669 -79.5461 128° Southeast 159 183 9,000 200 Climbing Miami Center
Thu 03:26:55 PM 27.1281 -79.4964 131° Southeast 176 203 9,000  Level Miami Center
Thu 03:27:55 PM 27.0975 -79.4536 129° Southeast 187 215 9,000  Level Miami Center
Thu 03:28:56 PM 27.0628 -79.4061 129° Southeast 187 215 9,000  Level Miami Center
Thu 03:29:55 PM 27.0344 -79.3658 128° Southeast 187 215 9,000  Level Miami Center
Thu 03:30:55 PM 26.9997 -79.3186 130° Southeast 187 215 9,000  Level Miami Center
Thu 03:31:55 PM 26.9669 -79.2736 129° Southeast 187 215 9,000  Level Miami Center
Thu 03:32:55 PM 26.9342 -79.2286 129° Southeast 187 215 9,000  Level Miami Center
Thu 03:33:55 PM 26.9017 -79.1814 128° Southeast 187 215 9,000  Level Miami Center
Thu 03:34:55 PM 26.8689 -79.1364 129° Southeast 187 215 9,000  Level Miami Center
Thu 03:35:55 PM 26.8322 -79.0869 130° Southeast 187 215 9,000  Level Miami Center
Thu 03:36:55 PM 26.8036 -79.0422 126° Southeast 187 215 9,000  Level Miami Center
Thu 03:37:55 PM 26.7686 -78.9950 130° Southeast 187 215 9,000  Level Miami Center
Thu 03:38:55 PM 26.7317 -78.9478 131° Southeast 187 215 9,000  Level Miami Center
Thu 03:39:55 PM 26.6992 -78.9006 128° Southeast 187 215 9,000  Level Miami Center
Thu 03:40:55 PM 26.6642 -78.8536 130° Southeast 187 215 9,000  Level Miami Center
Thu 03:41:55 PM 26.6314 -78.8089 129° Southeast 187 215 9,000  Level Miami Center
Thu 03:42:55 PM 26.5986 -78.7619 128° Southeast 187 215 9,000  Level Miami Center
Thu 03:43:55 PM 26.5636 -78.7147 130° Southeast 187 215 9,000  Level Miami Center
Thu 03:44:55 PM 26.5267 -78.6561 125° Southeast 197 227 9,000  Level Miami Center
Thu 03:46:07 PM 26.4939 -78.6069 127° Southeast 202 232 9,000  Level Miami Center
Thu 03:47:07 PM 26.4506 -78.5553 133° Southeast 196 226 9,000  Level Miami Center
Thu 03:48:07 PM 26.4178 -78.5061 127° Southeast 191 220 9,000  Level Miami Center
Thu 03:49:07 PM 26.3828 -78.4592 130° Southeast 191 220 9,000  Level Miami Center
Thu 03:50:19 PM 26.3456 -78.4169 135° Southeast 185 213 9,000  Level Miami Center
Thu 03:51:19 PM 26.3089 -78.3492 121° Southeast 196 226 9,000  Level Miami Center
Thu 03:52:19 PM 26.2736 -78.3047 132° Southeast 201 231 9,000  Level Miami Center
Thu 03:53:20 PM 26.2364 -78.2603 133° Southeast 201 231 9,000  Level Miami Center
Thu 03:54:19 PM 26.2036 -78.2042 123° Southeast 202 232 9,000  Level Miami Center
Thu 03:55:19 PM 26.1642 -78.1622 136° Southeast 202 232 9,000  Level Miami Center
Thu 03:56:19 PM 26.1314 -78.1086 124° Southeast 202 232 9,000  Level Miami Center
Thu 03:57:19 PM 26.0983 -78.0597 127° Southeast 202 232 9,000  Level Miami Center
Thu 03:58:19 PM 26.0653 -78.0131 128° Southeast 197 227 9,000 -50 Level Miami Center
Thu 03:59:20 PM 26.0300 -77.9664 130° Southeast 197 227 8,900  Descending Miami Center
Thu 04:00:20 PM 25.9864 -77.9431 154° Southeast 185 213 9,000 50 Climbing Miami Center
Thu 04:01:20 PM 25.9383 -77.9217 158° South 185 213 9,000  Level Miami Center
Thu 04:02:20 PM 25.8906 -77.8958 154° Southeast 185 213 9,000  Level Miami Center
Thu 04:03:20 PM 25.8428 -77.8769 160° South 190 219 9,000  Level Miami Center
Thu 04:04:20 PM 25.7969 -77.8489 151° Southeast 190 219 9,000  Level Miami Center
Thu 04:05:20 PM 25.7511 -77.8208 151° Southeast 190 219 9,000  Level Miami Center
Thu 04:06:20 PM 25.7072 -77.7997 157° South 190 219 9,000 -200 Level Miami Center
Thu 04:07:20 PM 25.6594 -77.7764 156° South 190 219 8,600 -400 Descending Miami Center
Thu 04:09:00 PM 25.5905 -77.7326 153° Southeast  Level FlightAware Approximate
Thu 04:16:00 PM 25.2906 -77.5895 158° South  Level FlightAware Approximate
Thu 04:17:00 PM 25.2474 -77.5699 158° South  Level FlightAware Approximate
Thu 04:18:00 PM 25.2042 -77.5503 158° South  Level FlightAware Approximate
Thu 04:19:00 PM 25.1613 -77.5300 150° Southeast  Level FlightAware Approximate
Thu 04:20:00 PM 25.1207 -77.5046 150° Southeast  Level FlightAware Approximate
Thu 04:21:00 PM 25.0801 -77.4792 150° Southeast  Level FlightAware Approximate
Thu 04:22:00 PM 25.0395 -77.4538 150° Southeast  Level FlightAware Approximate
Thu 04:23:00 PM 25.0390 -77.4662 267° West  Level Estimated
Thu 04:24:00 PM 25.0390 -77.4662 150° Southeast  Level Estimated
Thu 04:25:00 PM 25.0390 -77.4662 111° Southeast  Level Estimated
Thu 04:26:00 PM 25.0390 -77.4662 111° Southeast  Level Estimated
Thu 04:27:00 PM 25.0390 -77.4662 111° Southeast  Level Estimated
Thu 04:28:00 PM 25.0390 -77.4662 150° Southeast  Level Estimated
Thu 04:29:00 PM 25.0390 -77.4662 111° Southeast  Level Estimated
Thu 04:30:00 PM 25.0390 -77.4662 111° Southeast  Level Estimated
Thu 04:31:00 PM 25.0390 -77.4662 111° Southeast  Level Estimated
Thu 04:32:00 PM 25.0390 -77.4662 150° Southeast  Level Estimated
Thu 04:33:00 PM 25.0390 -77.4662 111° Southeast  Level Estimated
Thu 04:34:00 PM 25.0390 -77.4662 111° Southeast  Level Estimated
Thu 04:35:00 PM 25.0390 -77.4662 111° Southeast  Level Estimated
Thu 04:36:00 PM 25.0390 -77.4662 150° Southeast  Level Estimated
Thu 04:37:00 PM 25.0390 -77.4662 111° Southeast  Level Estimated
Thu 04:38:00 PM 25.0390 -77.4662 111° Southeast  Level Estimated
Thu 04:39:00 PM 25.0390 -77.4662 111° Southeast  Level Estimated
Thu 04:40:00 PM 25.0390 -77.4662 150° Southeast  Level Estimated
Thu 04:41:00 PM 25.0390 -77.4662 111° Southeast  Level Estimated

Login

Don't have an account? Register now (free) for customized features, flight alerts, and more!